Time;durP1;ratioP1;P1;durP2;ratioP2;P2;SDS_P1;SDS_P2;PMS_P1;PMS_P2;Temp;Humidity;BMP_temperature;BMP_pressure;BME280_temperature;BME280_humidity;BME280_pressure;Samples;Min_cycle;Max_cycle;Signal;HPM_P1;HPM_P2
2023/03/30 00:01:20;;;;;;;7.33;6.60;;;;;;;;;;5070360;28;20584;-67
2023/03/30 00:03:49;;;;;;;14.53;5.97;;;;;;;;;;5069420;28;20617;-66
2023/03/30 00:06:21;;;;;;;7.63;5.87;;;;;;;;;;5068822;28;20626;-66
2023/03/30 00:08:52;;;;;;;8.83;5.37;;;;;;;;;;5071447;28;20610;-66
2023/03/30 00:11:21;;;;;;;11.93;5.70;;;;;;;;;;5070037;28;20545;-66
2023/03/30 00:13:50;;;;;;;19.20;5.50;;;;;;;;;;5054758;28;20686;-67
2023/03/30 00:16:18;;;;;;;6.13;4.97;;;;;;;;;;5050506;28;21176;-67
2023/03/30 00:18:47;;;;;;;5.20;4.60;;;;;;;;;;5050722;28;20585;-67
2023/03/30 00:21:16;;;;;;;7.73;5.60;;;;;;;;;;5049606;28;20654;-67
2023/03/30 00:23:46;;;;;;;9.33;5.80;;;;;;;;;;5050789;28;20618;-68
2023/03/30 00:26:15;;;;;;;5.83;5.30;;;;;;;;;;5068577;28;20611;-67
2023/03/30 00:28:43;;;;;;;5.53;5.03;;;;;;;;;;5070650;28;20614;-68
2023/03/30 00:31:11;;;;;;;5.17;4.67;;;;;;;;;;5069542;28;21510;-68
2023/03/30 00:33:43;;;;;;;8.17;5.60;;;;;;;;;;5070401;28;20634;-67
2023/03/30 00:36:11;;;;;;;7.70;5.63;;;;;;;;;;5069535;28;20602;-68
2023/03/30 00:38:39;;;;;;;5.63;5.33;;;;;;;;;;5070219;28;20984;-67
2023/03/30 00:41:09;;;;;;;7.00;5.33;;;;;;;;;;5070765;28;20580;-67
2023/03/30 00:43:52;;;;;;;7.60;5.67;;;;;;;;;;5069693;28;20624;-68
2023/03/30 00:46:21;;;;;;;7.47;5.90;;;;;;;;;;5070261;28;20598;-68
2023/03/30 00:48:49;;;;;;;6.17;5.67;;;;;;;;;;5069852;28;20642;-66
2023/03/30 00:51:18;;;;;;;14.53;6.30;;;;;;;;;;5068863;28;20632;-67
2023/03/30 00:53:48;;;;;;;7.47;5.63;;;;;;;;;;5068671;28;20643;-67
2023/03/30 00:56:22;;;;;;;12.70;6.43;;;;;;;;;;5070333;28;20587;-68
2023/03/30 00:58:51;;;;;;;9.80;5.83;;;;;;;;;;5070309;28;20589;-66
2023/03/30 01:01:24;;;;;;;18.73;6.87;;;;;;;;;;5066000;28;21168;-64
2023/03/30 01:03:53;;;;;;;5.80;5.40;;;;;;;;;;5052537;28;20641;-65
2023/03/30 01:06:23;;;;;;;9.70;6.23;;;;;;;;;;5054109;28;20599;-64
2023/03/30 01:08:51;;;;;;;5.87;5.40;;;;;;;;;;5055182;28;21140;-63
2023/03/30 01:11:21;;;;;;;6.43;5.77;;;;;;;;;;5068566;28;20720;-64
2023/03/30 01:13:57;;;;;;;10.83;6.47;;;;;;;;;;5063027;28;20722;-64
2023/03/30 01:16:28;;;;;;;6.70;6.17;;;;;;;;;;5061227;28;20659;-64
2023/03/30 01:19:00;;;;;;;8.33;6.57;;;;;;;;;;5076755;28;20666;-64
2023/03/30 01:21:42;;;;;;;10.43;6.03;;;;;;;;;;5075524;28;20653;-66
2023/03/30 01:24:30;;;;;;;10.27;5.70;;;;;;;;;;5074107;28;21189;-68
2023/03/30 01:27:01;;;;;;;5.63;5.33;;;;;;;;;;5073238;28;20598;-67
2023/03/30 01:29:45;;;;;;;10.67;5.63;;;;;;;;;;5062804;28;21225;-66
2023/03/30 01:32:26;;;;;;;7.03;5.73;;;;;;;;;;5051087;28;20581;-68
2023/03/30 01:35:09;;;;;;;8.87;5.53;;;;;;;;;;5052528;28;20630;-67
2023/03/30 01:37:56;;;;;;;10.03;5.60;;;;;;;;;;5051453;28;20638;-67
2023/03/30 01:40:28;;;;;;;5.30;4.70;;;;;;;;;;5053356;28;20597;-67
2023/03/30 01:42:58;;;;;;;6.03;5.53;;;;;;;;;;5053356;28;20579;-68
2023/03/30 01:45:31;;;;;;;6.80;5.13;;;;;;;;;;5052257;28;20546;-68
2023/03/30 01:48:03;;;;;;;5.90;5.40;;;;;;;;;;5052766;28;20960;-68
2023/03/30 01:50:35;;;;;;;8.17;5.57;;;;;;;;;;5052275;28;20550;-68
2023/03/30 01:53:06;;;;;;;6.73;6.10;;;;;;;;;;5052608;28;20926;-68
2023/03/30 01:55:37;;;;;;;6.17;5.23;;;;;;;;;;5051926;28;20630;-68
2023/03/30 01:58:08;;;;;;;20.30;5.73;;;;;;;;;;5051690;28;21124;-68
2023/03/30 02:00:39;;;;;;;6.93;4.40;;;;;;;;;;5051736;28;20595;-67
2023/03/30 02:03:09;;;;;;;4.07;3.50;;;;;;;;;;5051667;28;20949;-68
2023/03/30 02:05:38;;;;;;;6.80;3.47;;;;;;;;;;5060176;28;20625;-67
2023/03/30 02:08:08;;;;;;;6.90;3.83;;;;;;;;;;5072753;28;20987;-67
2023/03/30 02:10:40;;;;;;;11.00;4.93;;;;;;;;;;5073189;28;20586;-68
2023/03/30 02:13:09;;;;;;;13.00;3.40;;;;;;;;;;5072562;28;20569;-67
2023/03/30 02:15:39;;;;;;;11.07;3.53;;;;;;;;;;5071849;28;20690;-68
2023/03/30 02:18:08;;;;;;;4.17;3.00;;;;;;;;;;5063058;28;20630;-67
2023/03/30 02:20:37;;;;;;;9.17;3.73;;;;;;;;;;5071200;28;20670;-67
2023/03/30 02:23:07;;;;;;;8.13;4.20;;;;;;;;;;5071849;28;20950;-66
2023/03/30 02:25:37;;;;;;;10.00;4.13;;;;;;;;;;5072318;28;20622;-67
2023/03/30 02:28:08;;;;;;;8.93;3.37;;;;;;;;;;5072131;28;20613;-67
2023/03/30 02:30:37;;;;;;;7.30;3.20;;;;;;;;;;5070856;28;20590;-67
2023/03/30 02:33:06;;;;;;;14.20;4.07;;;;;;;;;;5071652;28;20622;-67
2023/03/30 02:35:44;;;;;;;11.47;4.03;;;;;;;;;;5064407;28;20666;-68
2023/03/30 02:38:26;;;;;;;10.80;3.00;;;;;;;;;;5058510;28;20606;-67
2023/03/30 02:40:59;;;;;;;14.47;4.37;;;;;;;;;;5071122;28;20592;-67
2023/03/30 02:43:34;;;;;;;10.97;3.53;;;;;;;;;;5070848;28;20561;-68
2023/03/30 02:46:09;;;;;;;6.20;2.50;;;;;;;;;;5054384;28;20568;-68
2023/03/30 02:48:40;;;;;;;8.13;3.50;;;;;;;;;;5071918;28;20567;-70
2023/03/30 02:51:15;;;;;;;11.70;3.80;;;;;;;;;;5057847;28;20582;-72
2023/03/30 02:54:11;;;;;;;12.27;3.37;;;;;;;;;;5050567;28;20574;-70
2023/03/30 02:57:03;;;;;;;9.07;3.60;;;;;;;;;;5044274;28;20685;-70
2023/03/30 02:59:37;;;;;;;8.23;3.60;;;;;;;;;;5050377;28;20565;-70
2023/03/30 03:02:06;;;;;;;9.23;2.87;;;;;;;;;;5051119;28;20602;-70
2023/03/30 03:04:36;;;;;;;9.20;3.50;;;;;;;;;;5049113;28;21206;-70
2023/03/30 03:07:23;;;;;;;9.20;3.13;;;;;;;;;;5050229;28;20591;-68
2023/03/30 03:09:51;;;;;;;5.43;3.40;;;;;;;;;;5049653;28;20619;-69
2023/03/30 03:12:20;;;;;;;9.03;3.70;;;;;;;;;;5055762;28;20605;-71
2023/03/30 03:14:50;;;;;;;7.37;4.03;;;;;;;;;;5066619;28;20603;-71
2023/03/30 03:17:21;;;;;;;14.67;3.70;;;;;;;;;;5051194;28;20949;-70
2023/03/30 03:19:50;;;;;;;13.83;3.73;;;;;;;;;;5049944;28;20635;-70
2023/03/30 03:22:20;;;;;;;11.20;3.20;;;;;;;;;;5050894;28;20646;-68
2023/03/30 03:24:48;;;;;;;10.43;3.17;;;;;;;;;;5069498;28;21170;-70
2023/03/30 03:27:32;;;;;;;8.50;2.97;;;;;;;;;;5069610;28;20594;-69
2023/03/30 03:30:24;;;;;;;10.63;3.60;;;;;;;;;;5053371;28;20613;-70
2023/03/30 03:33:01;;;;;;;12.17;4.27;;;;;;;;;;5069176;28;20592;-70
2023/03/30 03:35:32;;;;;;;8.23;3.47;;;;;;;;;;5070220;28;20657;-70
2023/03/30 03:38:02;;;;;;;11.17;3.90;;;;;;;;;;5060880;28;20603;-70
2023/03/30 03:40:31;;;;;;;14.93;3.27;;;;;;;;;;5049747;28;20633;-70
2023/03/30 03:42:59;;;;;;;13.33;4.27;;;;;;;;;;5064702;28;20593;-70
2023/03/30 03:45:29;;;;;;;11.83;3.93;;;;;;;;;;5069718;28;20635;-70
2023/03/30 03:48:00;;;;;;;8.20;3.30;;;;;;;;;;5051995;28;20594;-70
2023/03/30 03:50:45;;;;;;;12.63;3.83;;;;;;;;;;5069405;28;20926;-71
2023/03/30 03:53:13;;;;;;;9.93;3.47;;;;;;;;;;5068666;28;20610;-71
2023/03/30 03:55:41;;;;;;;8.80;3.27;;;;;;;;;;5050550;28;20665;-68
2023/03/30 03:58:10;;;;;;;9.03;3.43;;;;;;;;;;5049994;28;20980;-70
2023/03/30 04:00:39;;;;;;;7.17;3.53;;;;;;;;;;5050413;28;21152;-71
2023/03/30 04:03:11;;;;;;;13.13;4.50;;;;;;;;;;5048871;28;20587;-71
2023/03/30 04:05:39;;;;;;;13.17;4.20;;;;;;;;;;5050198;28;20721;-70
2023/03/30 04:08:09;;;;;;;6.30;3.30;;;;;;;;;;5049448;28;20626;-70
2023/03/30 04:10:38;;;;;;;24.50;4.33;;;;;;;;;;5049207;28;20569;-70
2023/03/30 04:13:25;;;;;;;16.33;6.80;;;;;;;;;;5065928;28;20638;-71
2023/03/30 04:16:15;;;;;;;10.90;5.63;;;;;;;;;;5069751;28;20612;-71
2023/03/30 04:19:14;;;;;;;12.80;6.20;;;;;;;;;;5057372;28;20634;-70
2023/03/30 04:21:57;;;;;;;15.80;5.50;;;;;;;;;;5069578;28;21103;-70
2023/03/30 04:24:50;;;;;;;8.40;3.77;;;;;;;;;;5053030;28;20612;-71
2023/03/30 04:27:41;;;;;;;11.80;4.20;;;;;;;;;;5062549;28;20969;-70
2023/03/30 04:30:29;;;;;;;12.70;4.47;;;;;;;;;;5063948;28;20564;-71
2023/03/30 04:33:18;;;;;;;10.17;3.87;;;;;;;;;;5070150;28;20643;-71
2023/03/30 04:36:05;;;;;;;22.13;4.83;;;;;;;;;;5069469;28;21165;-69
2023/03/30 04:38:58;;;;;;;7.50;4.03;;;;;;;;;;5069963;28;20984;-69
2023/03/30 04:41:53;;;;;;;12.20;5.93;;;;;;;;;;5069222;28;20573;-71
2023/03/30 04:44:31;;;;;;;10.30;4.67;;;;;;;;;;5066346;28;20584;-71
2023/03/30 04:47:18;;;;;;;14.70;4.90;;;;;;;;;;5074390;28;20814;-71
2023/03/30 04:50:06;;;;;;;12.50;4.97;;;;;;;;;;5052894;28;20655;-71
2023/03/30 04:52:53;;;;;;;19.40;5.20;;;;;;;;;;5067026;28;20651;-71
2023/03/30 04:55:32;;;;;;;9.43;5.47;;;;;;;;;;5071196;28;22028;-70
2023/03/30 04:58:18;;;;;;;14.57;6.00;;;;;;;;;;5073077;28;20568;-70
2023/03/30 05:01:21;;;;;;;7.37;4.50;;;;;;;;;;5070547;28;20640;-71
2023/03/30 05:04:10;;;;;;;8.50;4.40;;;;;;;;;;5067878;28;20932;-70
2023/03/30 05:07:13;;;;;;;10.80;4.60;;;;;;;;;;5055262;28;20674;-70
2023/03/30 05:10:00;;;;;;;9.43;5.30;;;;;;;;;;5071810;28;20584;-71
2023/03/30 05:12:49;;;;;;;10.67;5.23;;;;;;;;;;5072927;28;20581;-69
2023/03/30 05:15:29;;;;;;;13.23;4.33;;;;;;;;;;5062695;28;21162;-70
2023/03/30 05:18:20;;;;;;;9.13;4.47;;;;;;;;;;5066169;28;20626;-71
2023/03/30 05:20:57;;;;;;;11.40;4.03;;;;;;;;;;5071851;28;20653;-70
2023/03/30 05:23:56;;;;;;;12.50;4.70;;;;;;;;;;5066893;28;21019;-71
2023/03/30 05:26:49;;;;;;;9.23;4.10;;;;;;;;;;5070837;28;20569;-71
2023/03/30 05:29:49;;;;;;;13.93;5.83;;;;;;;;;;5038299;28;20977;-71
2023/03/30 05:32:42;;;;;;;18.37;4.10;;;;;;;;;;5054424;28;20570;-68
2023/03/30 05:35:26;;;;;;;13.80;3.72;;;;;;;;;;5072938;28;20563;-69
2023/03/30 05:38:07;;;;;;;10.50;4.10;;;;;;;;;;5072766;28;20190;-71
2023/03/30 05:40:55;;;;;;;14.43;4.35;;;;;;;;;;5058115;28;20615;-66
2023/03/30 05:43:47;;;;;;;10.03;3.67;;;;;;;;;;5033779;28;20234;-71
2023/03/30 05:46:38;;;;;;;10.77;4.07;;;;;;;;;;5047994;28;20602;-73
2023/03/30 05:49:21;;;;;;;12.97;4.00;;;;;;;;;;5074148;28;20585;-69
2023/03/30 05:52:11;;;;;;;12.50;4.07;;;;;;;;;;5025517;28;20626;-72
2023/03/30 05:54:58;;;;;;;5.13;3.53;;;;;;;;;;5072366;28;20577;-71
2023/03/30 05:57:46;;;;;;;10.35;3.80;;;;;;;;;;5069622;28;20638;-73
2023/03/30 06:00:33;;;;;;;8.97;4.03;;;;;;;;;;5058968;28;20192;-74
2023/03/30 06:03:11;;;;;;;6.73;3.80;;;;;;;;;;5071419;28;20564;-72
2023/03/30 06:05:40;;;;;;;8.83;3.70;;;;;;;;;;5071128;28;20601;-69
2023/03/30 06:08:10;;;;;;;10.77;4.40;;;;;;;;;;5071284;28;20675;-72
2023/03/30 06:10:39;;;;;;;16.77;4.20;;;;;;;;;;5071807;28;20581;-71
2023/03/30 06:13:11;;;;;;;7.43;3.22;;;;;;;;;;5071070;28;20557;-71
2023/03/30 06:15:48;;;;;;;16.57;4.67;;;;;;;;;;5077744;28;20241;-67
2023/03/30 06:18:21;;;;;;;14.38;4.30;;;;;;;;;;5187394;22;20761;-86
2023/03/30 06:21:05;;;;;;;10.30;3.50;;;;;;;;;;5108781;28;20211;-85
2023/03/30 06:23:36;;;;;;;8.73;4.20;;;;;;;;;;5086773;28;20683;-85
2023/03/30 06:26:10;;;;;;;12.63;3.85;;;;;;;;;;5102002;28;20684;-85
2023/03/30 06:28:40;;;;;;;8.88;4.10;;;;;;;;;;5086287;28;20266;-85
2023/03/30 06:31:09;;;;;;;7.60;4.53;;;;;;;;;;5101476;28;20191;-84
2023/03/30 06:33:38;;;;;;;8.80;4.63;;;;;;;;;;5104922;28;20259;-85
2023/03/30 06:36:11;;;;;;;7.38;4.55;;;;;;;;;;5088245;28;20641;-86
2023/03/30 06:38:42;;;;;;;12.27;3.57;;;;;;;;;;5090780;28;20203;-86
2023/03/30 06:41:11;;;;;;;14.13;5.07;;;;;;;;;;5108126;28;20616;-85
2023/03/30 06:43:43;;;;;;;14.20;4.57;;;;;;;;;;5102918;28;20736;-84
2023/03/30 06:46:18;;;;;;;8.27;4.40;;;;;;;;;;5084284;28;20647;-85
2023/03/30 06:48:50;;;;;;;5.23;3.90;;;;;;;;;;5081440;28;20247;-85
2023/03/30 06:51:37;;;;;;;14.00;4.60;;;;;;;;;;5069038;28;20625;-85
2023/03/30 06:54:13;;;;;;;9.73;3.80;;;;;;;;;;5100005;28;20228;-84
2023/03/30 06:56:52;;;;;;;7.10;4.17;;;;;;;;;;5094936;28;20662;-85
2023/03/30 06:59:22;;;;;;;9.30;4.55;;;;;;;;;;5106703;28;20612;-86
2023/03/30 07:02:14;;;;;;;7.28;5.32;;;;;;;;;;5108188;22;20310;-70
2023/03/30 07:05:23;;;;;;;26.08;5.45;;;;;;;;;;5046842;28;20602;-69
2023/03/30 07:08:10;;;;;;;19.90;6.40;;;;;;;;;;5028327;28;20181;-70
2023/03/30 07:10:42;;;;;;;12.65;6.00;;;;;;;;;;5064691;28;20640;-70
2023/03/30 07:13:13;;;;;;;13.98;4.63;;;;;;;;;;5088864;28;20566;-70
2023/03/30 07:15:44;;;;;;;11.20;4.60;;;;;;;;;;5084902;28;20207;-69
2023/03/30 07:18:13;;;;;;;10.47;4.40;;;;;;;;;;5090769;28;21233;-71
2023/03/30 07:20:43;;;;;;;11.43;5.57;;;;;;;;;;5085749;28;20758;-72
2023/03/30 07:23:21;;;;;;;9.20;4.93;;;;;;;;;;5072364;28;20602;-70
2023/03/30 07:25:51;;;;;;;12.70;5.07;;;;;;;;;;5078890;28;20198;-68
2023/03/30 07:28:44;;;;;;;13.07;5.80;;;;;;;;;;5071592;28;20747;-72
2023/03/30 07:31:15;;;;;;;17.23;6.87;;;;;;;;;;5075600;28;20699;-72
2023/03/30 07:33:44;;;;;;;9.57;6.20;;;;;;;;;;5069349;28;20651;-71
2023/03/30 07:36:17;;;;;;;10.33;5.20;;;;;;;;;;5088469;28;20976;-71
2023/03/30 07:38:46;;;;;;;10.63;5.37;;;;;;;;;;5065759;28;20705;-71
2023/03/30 07:41:16;;;;;;;11.63;5.40;;;;;;;;;;5068356;28;20626;-72
2023/03/30 07:43:48;;;;;;;9.30;6.15;;;;;;;;;;5082686;28;20544;-72
2023/03/30 07:46:17;;;;;;;7.90;6.13;;;;;;;;;;5087228;28;20199;-72
2023/03/30 07:48:49;;;;;;;12.60;6.47;;;;;;;;;;5070784;28;20951;-72
2023/03/30 07:51:18;;;;;;;11.60;4.80;;;;;;;;;;5081548;28;20202;-72
2023/03/30 07:54:09;;;;;;;10.13;4.53;;;;;;;;;;5053285;28;20935;-73
2023/03/30 07:57:02;;;;;;;15.30;5.75;;;;;;;;;;5078963;28;20654;-72
2023/03/30 07:59:30;;;;;;;11.57;5.30;;;;;;;;;;5072773;28;20199;-71
2023/03/30 08:02:11;;;;;;;11.93;5.45;;;;;;;;;;5088512;28;20748;-69
2023/03/30 08:04:46;;;;;;;8.65;4.88;;;;;;;;;;5081909;28;20697;-70
2023/03/30 08:07:18;;;;;;;13.90;5.33;;;;;;;;;;5183377;22;20246;-89
2023/03/30 08:09:47;;;;;;;14.23;4.57;;;;;;;;;;5105100;28;20653;-86
2023/03/30 08:12:18;;;;;;;11.38;5.97;;;;;;;;;;5090022;28;20648;-87
2023/03/30 08:14:48;;;;;;;9.27;5.25;;;;;;;;;;5112462;28;20253;-87
2023/03/30 08:17:18;;;;;;;6.47;4.40;;;;;;;;;;5067988;28;20244;-87
2023/03/30 08:19:46;;;;;;;8.30;5.17;;;;;;;;;;5090567;28;20649;-85
2023/03/30 08:22:14;;;;;;;12.73;5.00;;;;;;;;;;5099965;28;20684;-85
2023/03/30 08:24:43;;;;;;;13.17;4.90;;;;;;;;;;5097802;28;20712;-83
2023/03/30 08:27:11;;;;;;;10.80;4.57;;;;;;;;;;5089185;28;20705;-84
2023/03/30 08:29:40;;;;;;;8.80;5.80;;;;;;;;;;5089096;28;20612;-85
2023/03/30 08:32:08;;;;;;;9.70;4.70;;;;;;;;;;5098183;28;20716;-85
2023/03/30 08:34:38;;;;;;;9.10;4.93;;;;;;;;;;5064894;28;21112;-86
2023/03/30 08:37:07;;;;;;;15.77;6.80;;;;;;;;;;5072719;28;20699;-86
2023/03/30 08:39:36;;;;;;;15.53;5.40;;;;;;;;;;5092177;28;20748;-87
2023/03/30 08:42:11;;;;;;;10.30;5.43;;;;;;;;;;5106073;28;20699;-86
2023/03/30 08:44:40;;;;;;;9.07;5.10;;;;;;;;;;5093717;28;20747;-86
2023/03/30 08:47:12;;;;;;;12.20;4.87;;;;;;;;;;5067576;28;20748;-84
2023/03/30 08:49:45;;;;;;;13.20;5.50;;;;;;;;;;5064393;28;21196;-86
2023/03/30 08:52:17;;;;;;;12.43;4.70;;;;;;;;;;5073155;28;20628;-86
2023/03/30 08:54:47;;;;;;;14.97;5.60;;;;;;;;;;5073105;28;20619;-86
2023/03/30 08:57:24;;;;;;;12.53;5.73;;;;;;;;;;5071706;28;20630;-86
2023/03/30 08:59:55;;;;;;;11.93;6.80;;;;;;;;;;5068038;28;20633;-87
2023/03/30 09:02:27;;;;;;;10.80;6.23;;;;;;;;;;5056570;28;20669;-86
2023/03/30 09:05:03;;;;;;;10.97;6.20;;;;;;;;;;5072117;28;21188;-86
2023/03/30 09:07:33;;;;;;;9.43;5.93;;;;;;;;;;5087172;28;21085;-84
2023/03/30 09:10:01;;;;;;;11.43;5.20;;;;;;;;;;5081404;28;21208;-85
2023/03/30 09:12:37;;;;;;;8.17;5.90;;;;;;;;;;5070012;28;20693;-86
2023/03/30 09:15:07;;;;;;;7.30;5.00;;;;;;;;;;5067047;28;20657;-86
2023/03/30 09:17:40;;;;;;;7.43;4.68;;;;;;;;;;5046625;28;20683;-86
2023/03/30 09:20:15;;;;;;;17.33;5.40;;;;;;;;;;5053567;28;20224;-88
2023/03/30 09:22:44;;;;;;;11.67;4.63;;;;;;;;;;5084340;28;20624;-87
2023/03/30 09:25:39;;;;;;;13.88;4.88;;;;;;;;;;5087860;28;20704;-87
2023/03/30 09:28:16;;;;;;;7.47;4.90;;;;;;;;;;5076203;28;20275;-88
2023/03/30 09:30:46;;;;;;;11.03;5.50;;;;;;;;;;5069340;28;20701;-86
2023/03/30 09:33:21;;;;;;;7.97;5.17;;;;;;;;;;5070488;28;20686;-86
2023/03/30 09:35:58;;;;;;;14.10;4.37;;;;;;;;;;5067217;28;20676;-87
2023/03/30 09:38:26;;;;;;;5.90;4.77;;;;;;;;;;5067593;28;20688;-87
2023/03/30 09:41:07;;;;;;;8.80;4.87;;;;;;;;;;5075103;28;20640;-86
2023/03/30 09:43:37;;;;;;;6.30;4.00;;;;;;;;;;5059514;28;20658;-87
2023/03/30 09:46:06;;;;;;;8.80;5.03;;;;;;;;;;5068197;28;20639;-87
2023/03/30 09:48:39;;;;;;;10.30;4.90;;;;;;;;;;5068604;28;20649;-87
2023/03/30 09:51:20;;;;;;;5.10;4.07;;;;;;;;;;5068851;28;20651;-87
2023/03/30 09:53:50;;;;;;;5.87;4.27;;;;;;;;;;5073262;28;20615;-87
2023/03/30 09:56:20;;;;;;;7.67;4.57;;;;;;;;;;5081535;28;20691;-86
2023/03/30 09:58:49;;;;;;;12.40;5.77;;;;;;;;;;5064555;28;20725;-87
2023/03/30 10:01:18;;;;;;;7.70;4.37;;;;;;;;;;5084996;28;20645;-86
2023/03/30 10:04:06;;;;;;;12.80;5.80;;;;;;;;;;5089031;28;20679;-85
2023/03/30 10:06:39;;;;;;;8.73;4.30;;;;;;;;;;5111819;22;20703;-67
2023/03/30 10:09:11;;;;;;;10.67;4.30;;;;;;;;;;5081559;28;21155;-72
2023/03/30 10:11:41;;;;;;;5.90;4.43;;;;;;;;;;5083531;28;20629;-71
2023/03/30 10:14:33;;;;;;;9.60;4.80;;;;;;;;;;5081111;28;21169;-73
2023/03/30 10:17:02;;;;;;;8.87;4.90;;;;;;;;;;5064208;28;20701;-71
2023/03/30 10:19:33;;;;;;;13.63;5.10;;;;;;;;;;5076082;28;20647;-74
2023/03/30 10:22:03;;;;;;;12.73;4.90;;;;;;;;;;5071376;28;20618;-72
2023/03/30 10:24:32;;;;;;;4.53;3.93;;;;;;;;;;5051039;28;21004;-73
2023/03/30 10:27:04;;;;;;;9.37;4.17;;;;;;;;;;5056840;28;20636;-71
2023/03/30 10:29:33;;;;;;;5.53;3.77;;;;;;;;;;5070511;28;20594;-73
2023/03/30 10:32:03;;;;;;;7.10;3.50;;;;;;;;;;5069706;28;20593;-73
2023/03/30 10:34:36;;;;;;;4.47;3.17;;;;;;;;;;5070623;28;21236;-73
2023/03/30 10:37:07;;;;;;;8.73;3.50;;;;;;;;;;5065093;28;21217;-73
2023/03/30 10:39:36;;;;;;;4.33;3.30;;;;;;;;;;5070236;28;20676;-74
2023/03/30 10:42:06;;;;;;;5.13;3.57;;;;;;;;;;5063810;28;20953;-73
2023/03/30 10:44:36;;;;;;;6.37;3.17;;;;;;;;;;5070031;28;20644;-73
2023/03/30 10:47:17;;;;;;;3.43;2.67;;;;;;;;;;5059277;28;20607;-72
2023/03/30 10:49:50;;;;;;;7.60;3.20;;;;;;;;;;5070449;28;21113;-73
2023/03/30 10:52:25;;;;;;;3.23;2.93;;;;;;;;;;5072213;28;20573;-75
2023/03/30 10:54:56;;;;;;;4.80;3.10;;;;;;;;;;5071791;28;20620;-71
2023/03/30 10:57:27;;;;;;;5.80;2.77;;;;;;;;;;5071164;28;20618;-74
2023/03/30 11:00:08;;;;;;;8.23;3.17;;;;;;;;;;5066982;28;20648;-73
2023/03/30 11:02:47;;;;;;;4.30;2.93;;;;;;;;;;5065840;28;20596;-73
2023/03/30 11:05:17;;;;;;;3.67;2.37;;;;;;;;;;5056720;28;21144;-73
2023/03/30 11:07:48;;;;;;;6.00;3.23;;;;;;;;;;5069731;28;20981;-73
2023/03/30 11:10:18;;;;;;;4.60;3.20;;;;;;;;;;5055689;28;20599;-73
2023/03/30 11:12:49;;;;;;;4.27;3.70;;;;;;;;;;5069860;28;20691;-68
2023/03/30 11:15:19;;;;;;;9.37;3.93;;;;;;;;;;5065004;28;21027;-72
2023/03/30 11:17:54;;;;;;;3.93;3.33;;;;;;;;;;5069768;28;20614;-73
2023/03/30 11:20:26;;;;;;;3.90;3.50;;;;;;;;;;5067554;28;20656;-72
2023/03/30 11:23:04;;;;;;;5.93;3.93;;;;;;;;;;5070031;28;20671;-73
2023/03/30 11:25:34;;;;;;;7.93;4.00;;;;;;;;;;5069993;28;20667;-74
2023/03/30 11:28:07;;;;;;;5.20;3.20;;;;;;;;;;5067710;28;20602;-74
2023/03/30 11:30:36;;;;;;;8.00;3.80;;;;;;;;;;5070480;28;20659;-74
2023/03/30 11:33:09;;;;;;;5.03;3.60;;;;;;;;;;5067768;28;20632;-73
2023/03/30 11:35:40;;;;;;;5.20;3.90;;;;;;;;;;5067521;28;20682;-73
2023/03/30 11:38:14;;;;;;;6.57;5.10;;;;;;;;;;5068001;28;20651;-73
2023/03/30 11:40:45;;;;;;;4.77;4.37;;;;;;;;;;5069247;28;20655;-74
2023/03/30 11:43:13;;;;;;;5.43;5.03;;;;;;;;;;5071131;28;20598;-74
2023/03/30 11:45:52;;;;;;;7.67;6.10;;;;;;;;;;5066456;28;20646;-74
2023/03/30 11:48:28;;;;;;;10.63;5.60;;;;;;;;;;5067695;28;20605;-73
2023/03/30 11:51:05;;;;;;;6.13;5.60;;;;;;;;;;5066862;28;20774;-73
2023/03/30 11:53:40;;;;;;;7.80;7.03;;;;;;;;;;5068849;28;20598;-73
2023/03/30 11:56:11;;;;;;;8.70;6.07;;;;;;;;;;5061667;28;20617;-72
2023/03/30 11:58:41;;;;;;;7.33;5.87;;;;;;;;;;5066506;28;20967;-72
2023/03/30 12:01:18;;;;;;;11.63;6.13;;;;;;;;;;5065721;28;20622;-72
2023/03/30 12:03:47;;;;;;;5.70;4.93;;;;;;;;;;5049781;28;20587;-72
2023/03/30 12:06:28;;;;;;;5.93;5.30;;;;;;;;;;5048774;28;20643;-73
2023/03/30 12:09:03;;;;;;;7.17;6.50;;;;;;;;;;5063717;28;20604;-73
2023/03/30 12:11:34;;;;;;;5.80;5.30;;;;;;;;;;5068735;28;20605;-73
2023/03/30 12:14:02;;;;;;;7.33;6.43;;;;;;;;;;5069250;28;20624;-73
2023/03/30 12:16:33;;;;;;;6.93;6.30;;;;;;;;;;5051664;28;20618;-72
2023/03/30 12:19:07;;;;;;;9.23;7.17;;;;;;;;;;5068743;28;20610;-72
2023/03/30 12:21:39;;;;;;;7.70;6.97;;;;;;;;;;5069735;28;20582;-71
2023/03/30 12:24:13;;;;;;;8.67;7.60;;;;;;;;;;5069546;28;20990;-73
2023/03/30 12:26:42;;;;;;;7.97;7.27;;;;;;;;;;5069430;28;20613;-71
2023/03/30 12:29:11;;;;;;;9.33;7.20;;;;;;;;;;5068778;28;20622;-75
2023/03/30 12:31:50;;;;;;;7.33;6.90;;;;;;;;;;5066535;28;20659;-74
2023/03/30 12:34:19;;;;;;;8.17;7.53;;;;;;;;;;5061448;28;20610;-72
2023/03/30 12:36:48;;;;;;;9.10;8.50;;;;;;;;;;5070029;28;21179;-75
2023/03/30 12:39:20;;;;;;;8.57;8.20;;;;;;;;;;5069920;28;20646;-72
2023/03/30 12:41:50;;;;;;;9.43;8.53;;;;;;;;;;5064024;28;20606;-73
2023/03/30 12:44:30;;;;;;;9.80;9.10;;;;;;;;;;5057720;28;20630;-73
2023/03/30 12:47:04;;;;;;;10.27;9.37;;;;;;;;;;5068274;28;20617;-72
2023/03/30 12:49:39;;;;;;;9.27;8.87;;;;;;;;;;5069324;28;20979;-74
2023/03/30 12:52:12;;;;;;;9.13;8.37;;;;;;;;;;5084265;28;20589;-73
2023/03/30 12:54:57;;;;;;;10.33;9.60;;;;;;;;;;5074815;28;20616;-73
2023/03/30 12:57:31;;;;;;;10.70;9.90;;;;;;;;;;5064537;28;20624;-71
2023/03/30 13:00:08;;;;;;;10.80;9.80;;;;;;;;;;5065937;28;20695;-73
2023/03/30 13:02:43;;;;;;;10.00;9.40;;;;;;;;;;5065909;28;20614;-74
2023/03/30 13:05:18;;;;;;;9.63;8.90;;;;;;;;;;5062580;28;20691;-73
2023/03/30 13:07:46;;;;;;;8.63;7.90;;;;;;;;;;5064253;28;20613;-73
2023/03/30 13:10:34;;;;;;;8.27;7.87;;;;;;;;;;5070669;28;20683;-72
2023/03/30 13:13:04;;;;;;;8.87;8.47;;;;;;;;;;5069285;28;20610;-73
2023/03/30 13:15:42;;;;;;;9.57;8.97;;;;;;;;;;5063867;28;20959;-74
2023/03/30 13:18:31;;;;;;;9.63;8.90;;;;;;;;;;5066360;28;20603;-73
2023/03/30 13:21:21;;;;;;;9.57;8.87;;;;;;;;;;5071487;28;20673;-73
2023/03/30 13:24:00;;;;;;;9.13;8.73;;;;;;;;;;5068604;28;20691;-73
2023/03/30 13:26:29;;;;;;;10.77;9.87;;;;;;;;;;5056655;28;21219;-74
2023/03/30 13:29:03;;;;;;;10.57;10.10;;;;;;;;;;5071613;28;21231;-73
2023/03/30 13:31:38;;;;;;;10.67;10.17;;;;;;;;;;5073531;28;20605;-74
2023/03/30 13:34:11;;;;;;;12.03;11.37;;;;;;;;;;5064555;28;20617;-74
2023/03/30 13:36:43;;;;;;;11.70;10.90;;;;;;;;;;5072892;28;20602;-73
2023/03/30 13:39:17;;;;;;;11.90;11.10;;;;;;;;;;5071732;28;21177;-71
2023/03/30 13:41:51;;;;;;;11.10;10.63;;;;;;;;;;5064390;28;20911;-72
2023/03/30 13:44:34;;;;;;;12.03;11.33;;;;;;;;;;5062722;28;20606;-72
2023/03/30 13:47:08;;;;;;;10.70;10.10;;;;;;;;;;5073521;28;20673;-72
2023/03/30 13:49:42;;;;;;;12.27;11.53;;;;;;;;;;5072433;28;20606;-73
2023/03/30 13:52:11;;;;;;;10.80;10.20;;;;;;;;;;5072876;28;21166;-73
2023/03/30 13:54:41;;;;;;;10.03;9.43;;;;;;;;;;5072561;28;20622;-74
2023/03/30 13:57:10;;;;;;;9.80;9.40;;;;;;;;;;5067828;28;20632;-73
2023/03/30 13:59:42;;;;;;;10.90;10.20;;;;;;;;;;5065143;28;20638;-71
2023/03/30 14:02:14;;;;;;;9.90;9.40;;;;;;;;;;5071746;28;20594;-72
2023/03/30 14:04:44;;;;;;;10.33;9.83;;;;;;;;;;5070500;28;20678;-72
2023/03/30 14:07:15;;;;;;;10.67;10.07;;;;;;;;;;5068590;28;20666;-74
2023/03/30 14:09:44;;;;;;;11.23;10.47;;;;;;;;;;5070341;28;20617;-72
2023/03/30 14:12:14;;;;;;;10.20;9.70;;;;;;;;;;5071538;28;20633;-72
2023/03/30 14:14:47;;;;;;;10.23;9.63;;;;;;;;;;5072547;28;20652;-74
2023/03/30 14:17:17;;;;;;;10.87;10.37;;;;;;;;;;5071648;28;21182;-73
2023/03/30 14:19:51;;;;;;;9.83;9.37;;;;;;;;;;5070530;28;20805;-73
2023/03/30 14:22:21;;;;;;;10.77;9.97;;;;;;;;;;5052064;28;20987;-72
2023/03/30 14:24:57;;;;;;;10.40;9.80;;;;;;;;;;5067611;28;20626;-72
2023/03/30 14:27:25;;;;;;;10.87;10.37;;;;;;;;;;5071898;28;20658;-74
2023/03/30 14:29:55;;;;;;;10.23;9.63;;;;;;;;;;5071014;28;21203;-72
2023/03/30 14:32:25;;;;;;;10.03;9.37;;;;;;;;;;5067783;28;21248;-72
2023/03/30 14:34:54;;;;;;;10.77;10.17;;;;;;;;;;5070806;28;20625;-73
2023/03/30 14:37:24;;;;;;;11.80;10.87;;;;;;;;;;5070783;28;20636;-74
2023/03/30 14:39:53;;;;;;;10.40;9.70;;;;;;;;;;5067577;28;20624;-72
2023/03/30 14:42:22;;;;;;;10.77;10.20;;;;;;;;;;5070953;28;20629;-67
2023/03/30 14:44:53;;;;;;;9.60;9.10;;;;;;;;;;5071991;28;20650;-69
2023/03/30 14:47:24;;;;;;;9.70;9.10;;;;;;;;;;5066081;28;20630;-66
2023/03/30 14:49:53;;;;;;;10.13;9.30;;;;;;;;;;5071771;28;20671;-71
2023/03/30 14:52:23;;;;;;;9.37;8.77;;;;;;;;;;5070474;28;20622;-67
2023/03/30 14:54:54;;;;;;;9.37;8.90;;;;;;;;;;5071500;28;21171;-73
2023/03/30 14:57:23;;;;;;;8.70;8.30;;;;;;;;;;5070735;28;20626;-71
2023/03/30 14:59:53;;;;;;;9.07;8.57;;;;;;;;;;5071355;28;20618;-72
2023/03/30 15:02:24;;;;;;;9.03;8.53;;;;;;;;;;5070774;28;20649;-69
2023/03/30 15:04:52;;;;;;;9.07;8.57;;;;;;;;;;5069882;28;20610;-72
2023/03/30 15:07:21;;;;;;;9.90;9.33;;;;;;;;;;5068799;28;21255;-70
2023/03/30 15:09:54;;;;;;;9.30;8.60;;;;;;;;;;5070732;28;20625;-72
2023/03/30 15:12:25;;;;;;;9.80;9.20;;;;;;;;;;5070369;28;20613;-73
2023/03/30 15:14:55;;;;;;;9.67;9.20;;;;;;;;;;5070331;28;20967;-74
2023/03/30 15:17:26;;;;;;;10.30;9.70;;;;;;;;;;5071062;28;20582;-73
2023/03/30 15:19:56;;;;;;;10.00;9.50;;;;;;;;;;5054937;28;21012;-73